createdAt,value
2018-10-21T00:01:33.558Z,18.77
2018-10-21T00:04:02.432Z,18.90
2018-10-21T00:06:31.344Z,18.13
2018-10-21T00:09:00.590Z,17.33
2018-10-21T00:11:29.543Z,18.73
2018-10-21T00:13:58.444Z,21.07
2018-10-21T00:16:43.832Z,17.47
2018-10-21T00:19:12.711Z,16.90
2018-10-21T00:21:41.660Z,23.33
2018-10-21T00:24:16.628Z,20.40
2018-10-21T00:26:45.539Z,18.23
2018-10-21T00:29:14.418Z,19.37
2018-10-21T00:31:43.353Z,18.43
2018-10-21T00:34:14.302Z,20.43
2018-10-21T00:36:43.211Z,18.60
2018-10-21T00:39:13.560Z,18.57
2018-10-21T00:41:50.808Z,18.83
2018-10-21T00:44:19.711Z,19.73
2018-10-21T00:46:48.586Z,19.10
2018-10-21T00:49:18.566Z,22.87
2018-10-21T00:51:49.526Z,18.87
2018-10-21T00:54:18.431Z,16.93
2018-10-21T00:56:47.873Z,18.73
2018-10-21T00:59:22.455Z,19.47
2018-10-21T01:01:52.754Z,20.53
2018-10-21T01:04:22.670Z,19.93
2018-10-21T01:06:51.573Z,17.57
2018-10-21T01:09:26.702Z,20.70
2018-10-21T01:12:03.473Z,19.20
2018-10-21T01:17:26.635Z,20.10
2018-10-21T01:19:56.630Z,20.30
2018-10-21T01:22:40.477Z,19.70
2018-10-21T01:25:14.954Z,21.17
2018-10-21T01:27:43.823Z,21.47
2018-10-21T01:30:13.302Z,21.40
2018-10-21T01:32:48.136Z,19.23
2018-10-21T01:35:17.104Z,21.97
2018-10-21T01:37:46.074Z,22.23
2018-10-21T01:40:35.742Z,22.27
2018-10-21T01:43:07.578Z,20.70
2018-10-21T01:45:36.514Z,20.90
2018-10-21T01:48:06.882Z,20.07
2018-10-21T01:50:35.860Z,24.17
2018-10-21T01:53:05.888Z,22.70
2018-10-21T01:55:34.748Z,23.53
2018-10-21T01:58:15.753Z,23.10
2018-10-21T02:00:44.845Z,22.73
2018-10-21T02:03:13.898Z,22.33
2018-10-21T02:05:54.896Z,22.33
2018-10-21T02:08:23.815Z,23.23
2018-10-21T02:11:06.805Z,23.93
2018-10-21T02:13:35.698Z,21.43
2018-10-21T02:16:04.608Z,21.27
2018-10-21T02:18:35.577Z,19.70
2018-10-21T02:21:04.520Z,22.20
2018-10-21T02:23:35.369Z,18.20
2018-10-21T02:26:04.270Z,22.20
2018-10-21T02:28:33.171Z,21.80
2018-10-21T02:31:20.861Z,26.27
2018-10-21T02:33:49.770Z,20.73
2018-10-21T02:36:29.665Z,20.53
2018-10-21T02:39:07.930Z,22.60
2018-10-21T02:41:48.322Z,21.73
2018-10-21T02:44:20.791Z,22.43
2018-10-21T02:46:51.268Z,20.33
2018-10-21T02:49:20.726Z,21.97
2018-10-21T02:51:55.005Z,23.50
2018-10-21T02:54:28.985Z,23.70
2018-10-21T02:56:57.865Z,28.03
2018-10-21T02:59:26.920Z,23.07
2018-10-21T03:01:55.824Z,24.27
2018-10-21T03:04:25.852Z,25.80
2018-10-21T03:06:54.762Z,23.60
2018-10-21T03:09:23.627Z,22.60
2018-10-21T03:11:52.520Z,26.17
2018-10-21T03:14:28.522Z,25.07
2018-10-21T03:17:01.321Z,22.80
2018-10-21T03:19:31.037Z,24.70
2018-10-21T03:22:07.417Z,23.80
2018-10-21T03:24:40.113Z,30.10
2018-10-21T03:27:09.491Z,21.97
2018-10-21T03:29:40.688Z,25.53
2018-10-21T03:32:09.933Z,22.07
2018-10-21T03:34:46.638Z,24.53
2018-10-21T03:37:21.573Z,20.50
2018-10-21T03:39:50.921Z,22.13
2018-10-21T03:42:19.864Z,19.93
2018-10-21T03:44:48.729Z,24.73
2018-10-21T03:47:23.364Z,25.27
2018-10-21T03:49:52.257Z,22.60
2018-10-21T03:52:21.144Z,22.17
2018-10-21T03:54:50.234Z,27.67
2018-10-21T03:57:19.098Z,21.33
2018-10-21T03:59:47.977Z,25.90
2018-10-21T04:02:27.719Z,22.27
2018-10-21T04:04:56.606Z,22.70
2018-10-21T04:07:37.525Z,24.53
2018-10-21T04:10:06.448Z,23.67
2018-10-21T04:12:36.399Z,24.10
2018-10-21T04:15:07.676Z,25.00
2018-10-21T04:17:47.167Z,22.77
2018-10-21T04:20:16.187Z,24.03
2018-10-21T04:23:04.074Z,26.17
2018-10-21T04:25:36.589Z,20.53
2018-10-21T04:28:24.885Z,23.03
2018-10-21T04:31:11.901Z,21.70
2018-10-21T04:33:46.852Z,24.93
2018-10-21T04:36:20.407Z,22.97
2018-10-21T04:40:03.690Z,25.53
2018-10-21T04:42:42.136Z,24.37
2018-10-21T04:45:12.343Z,25.67
2018-10-21T04:47:41.355Z,23.30
2018-10-21T04:50:32.763Z,21.87
2018-10-21T04:53:06.133Z,27.63
2018-10-21T04:55:40.333Z,23.60
2018-10-21T04:58:09.832Z,21.50
2018-10-21T05:00:49.654Z,22.23
2018-10-21T05:03:19.059Z,19.67
2018-10-21T05:05:48.564Z,24.37
2018-10-21T05:08:19.010Z,22.23
2018-10-21T05:10:48.372Z,19.57
2018-10-21T05:13:18.026Z,21.83
2018-10-21T05:15:49.542Z,25.77
2018-10-21T05:18:24.599Z,19.50
2018-10-21T05:26:57.522Z,22.53
2018-10-21T05:29:27.592Z,23.57
2018-10-21T05:32:00.472Z,22.90
2018-10-21T05:34:30.383Z,22.40
2018-10-21T05:37:02.407Z,19.73
2018-10-21T05:39:40.930Z,22.47
2018-10-21T05:42:14.117Z,22.13
2018-10-21T05:44:56.007Z,21.77
2018-10-21T05:47:25.940Z,28.67
2018-10-21T05:49:54.823Z,22.93
2018-10-21T05:52:24.721Z,23.77
2018-10-21T05:54:57.550Z,21.33
2018-10-21T05:57:26.414Z,21.37
2018-10-21T05:59:55.299Z,20.27
2018-10-21T06:02:40.293Z,22.37
2018-10-21T06:05:21.480Z,22.53
2018-10-21T06:08:03.827Z,21.97
2018-10-21T06:10:36.730Z,23.00
2018-10-21T06:13:20.345Z,22.93
2018-10-21T06:16:02.108Z,23.10
2018-10-21T06:18:36.708Z,22.47
2018-10-21T06:21:06.223Z,21.40
2018-10-21T06:23:35.239Z,23.03
2018-10-21T06:26:04.115Z,24.07
2018-10-21T06:28:33.067Z,22.60
2018-10-21T06:31:01.940Z,20.00
2018-10-21T06:33:30.851Z,24.60
2018-10-21T06:36:00.879Z,21.37
2018-10-21T06:38:47.268Z,22.03
2018-10-21T06:41:16.218Z,26.37
2018-10-21T06:43:45.102Z,23.63
2018-10-21T06:46:14.001Z,24.03
2018-10-21T06:48:59.035Z,24.40
2018-10-21T06:51:27.917Z,25.90
2018-10-21T06:53:56.816Z,26.87
2018-10-21T06:56:25.927Z,24.03
2018-10-21T06:58:54.802Z,23.83
2018-10-21T07:01:23.685Z,26.77
2018-10-21T07:03:52.565Z,24.77
2018-10-21T07:09:17.293Z,23.43
2018-10-21T07:11:46.185Z,27.07
2018-10-21T07:14:15.088Z,25.43
2018-10-21T07:16:51.704Z,26.27
2018-10-21T07:19:21.736Z,28.50
2018-10-21T07:22:03.787Z,28.50
2018-10-21T07:24:32.697Z,30.63
2018-10-21T07:27:01.594Z,26.73
2018-10-21T07:29:30.489Z,30.50
2018-10-21T07:31:59.429Z,27.33
2018-10-21T07:34:28.460Z,27.77
2018-10-21T07:36:58.486Z,27.33
2018-10-21T07:39:28.502Z,31.20
2018-10-21T07:42:02.458Z,27.40
2018-10-21T07:44:37.812Z,25.47
2018-10-21T07:47:06.796Z,26.63
2018-10-21T07:52:35.620Z,26.93
2018-10-21T07:55:06.653Z,26.60
2018-10-21T07:57:47.127Z,24.50
2018-10-21T08:00:16.226Z,26.67
2018-10-21T08:02:47.216Z,27.63
2018-10-21T08:06:28.424Z,25.40
2018-10-21T08:08:57.348Z,29.10
2018-10-21T08:11:33.433Z,28.10
2018-10-21T08:14:02.420Z,33.47
2018-10-21T08:16:31.442Z,28.77
2018-10-21T08:19:00.338Z,26.97
2018-10-21T08:21:29.443Z,28.00
2018-10-21T08:23:58.391Z,31.73
2018-10-21T08:26:27.244Z,29.20
2018-10-21T08:28:56.145Z,31.40
2018-10-21T08:31:30.210Z,27.53
2018-10-21T08:33:59.178Z,29.33
2018-10-21T08:36:28.148Z,27.97
2018-10-21T08:38:57.102Z,28.17
2018-10-21T08:41:26.051Z,27.93
2018-10-21T08:43:54.982Z,31.87
2018-10-21T08:46:30.129Z,26.50
2018-10-21T08:48:58.965Z,30.77
2018-10-21T08:51:41.309Z,30.07
2018-10-21T08:54:19.945Z,30.03
2018-10-21T08:56:49.000Z,26.13
2018-10-21T08:59:17.938Z,28.83
2018-10-21T09:01:47.855Z,27.90
2018-10-21T09:04:18.877Z,29.43
2018-10-21T09:06:47.933Z,30.93
2018-10-21T09:09:31.271Z,28.47
2018-10-21T09:12:06.288Z,25.80
2018-10-21T09:14:49.149Z,28.60
2018-10-21T09:17:23.972Z,25.57
2018-10-21T09:20:05.541Z,25.07
2018-10-21T09:22:49.213Z,26.13
2018-10-21T09:25:18.123Z,23.57
2018-10-21T09:28:03.937Z,26.23
2018-10-21T09:30:39.290Z,27.63
2018-10-21T09:33:10.231Z,22.20
2018-10-21T09:35:45.229Z,24.73
2018-10-21T09:38:31.545Z,25.23
2018-10-21T09:41:14.531Z,23.20
2018-10-21T09:43:44.068Z,20.87
2018-10-21T09:46:13.313Z,27.70
2018-10-21T09:48:42.475Z,24.13
2018-10-21T09:51:15.121Z,25.77
2018-10-21T09:53:45.040Z,23.33
2018-10-21T09:56:13.933Z,22.27
2018-10-21T09:58:42.913Z,23.63
2018-10-21T10:01:19.221Z,21.83
2018-10-21T10:03:55.191Z,19.60
2018-10-21T10:06:24.167Z,21.67
2018-10-21T10:09:03.544Z,21.73
2018-10-21T10:11:36.708Z,18.97
2018-10-21T10:14:07.712Z,18.00
2018-10-21T10:16:47.472Z,18.70
2018-10-21T10:22:15.382Z,18.33
2018-10-21T10:25:06.920Z,23.33
2018-10-21T10:27:45.305Z,17.37
2018-10-21T10:30:14.304Z,18.67
2018-10-21T10:32:44.087Z,18.10
2018-10-21T10:35:14.057Z,16.97
2018-10-21T10:37:50.944Z,17.13
2018-10-21T10:40:29.612Z,16.43
2018-10-21T10:43:03.177Z,14.23
2018-10-21T10:45:32.000Z,15.50
2018-10-21T10:48:00.879Z,17.27
2018-10-21T10:50:29.880Z,18.17
2018-10-21T10:53:02.327Z,14.63
2018-10-21T10:55:36.358Z,14.30
2018-10-21T10:58:05.588Z,12.93
2018-10-21T11:00:36.442Z,12.60
2018-10-21T11:03:05.424Z,13.63
2018-10-21T11:05:34.306Z,8.73
2018-10-21T11:08:03.208Z,11.07
2018-10-21T11:10:32.218Z,14.80
2018-10-21T11:13:01.494Z,13.50
2018-10-21T11:15:32.418Z,11.00
2018-10-21T11:18:01.424Z,12.57
2018-10-21T11:20:34.603Z,14.53
2018-10-21T11:23:09.304Z,13.33
2018-10-21T11:25:38.212Z,12.33
2018-10-21T11:28:09.202Z,13.90
2018-10-21T11:30:38.075Z,13.07
2018-10-21T11:33:27.397Z,12.83
2018-10-21T11:35:56.738Z,9.93
2018-10-21T11:38:25.704Z,12.33
2018-10-21T11:40:54.590Z,10.33
2018-10-21T11:43:23.485Z,12.83
2018-10-21T11:45:52.384Z,9.53
2018-10-21T11:48:21.260Z,9.57
2018-10-21T11:50:50.145Z,11.10
2018-10-21T11:56:18.354Z,9.53
2018-10-21T11:58:47.266Z,10.50
2018-10-21T12:01:16.227Z,10.03
2018-10-21T12:03:45.021Z,8.37
2018-10-21T12:06:13.879Z,8.20
2018-10-21T12:08:42.747Z,6.60
2018-10-21T12:11:11.632Z,10.80
2018-10-21T12:13:40.536Z,9.33
2018-10-21T12:16:09.458Z,10.03
2018-10-21T12:18:38.329Z,10.70
2018-10-21T12:21:07.243Z,9.57
2018-10-21T12:23:36.188Z,7.13
2018-10-21T12:26:20.988Z,9.57
2018-10-21T12:28:49.927Z,9.83
2018-10-21T12:31:18.903Z,8.97
2018-10-21T12:34:10.175Z,7.27
2018-10-21T12:36:39.088Z,7.97
2018-10-21T12:39:09.434Z,5.93
2018-10-21T12:41:41.431Z,6.13
2018-10-21T12:44:10.296Z,8.50
2018-10-21T12:46:47.500Z,5.43
2018-10-21T12:49:16.473Z,6.60
2018-10-21T12:51:50.794Z,6.50
2018-10-21T12:54:19.724Z,8.97
2018-10-21T12:56:48.560Z,6.53
2018-10-21T12:59:17.454Z,6.00
2018-10-21T13:01:51.624Z,6.83
2018-10-21T13:04:20.531Z,5.07
2018-10-21T13:06:49.440Z,3.77
2018-10-21T13:09:18.332Z,6.43
2018-10-21T13:11:47.204Z,7.83
2018-10-21T13:14:16.098Z,7.60
2018-10-21T13:19:38.378Z,7.77
2018-10-21T13:22:07.237Z,6.60
2018-10-21T13:24:37.069Z,5.97
2018-10-21T13:27:06.006Z,5.53
2018-10-21T13:29:34.972Z,8.73
2018-10-21T13:32:05.119Z,9.33
2018-10-21T13:34:34.055Z,5.50
2018-10-21T13:37:03.077Z,7.27
2018-10-21T13:39:31.954Z,5.93
2018-10-21T13:42:00.854Z,4.70
2018-10-21T13:44:29.755Z,8.07
2018-10-21T13:46:58.630Z,5.87
2018-10-21T13:49:27.520Z,6.83
2018-10-21T13:51:56.535Z,9.30
2018-10-21T13:54:25.240Z,6.50
2018-10-21T13:56:57.380Z,7.30
2018-10-21T13:59:26.247Z,4.37
2018-10-21T14:01:55.241Z,3.33
2018-10-21T14:04:25.224Z,4.00
2018-10-21T14:06:54.199Z,4.93
2018-10-21T14:09:23.468Z,4.83
2018-10-21T14:11:52.816Z,6.43
2018-10-21T14:14:29.760Z,7.23
2018-10-21T14:16:59.170Z,6.70
2018-10-21T14:19:51.313Z,4.10
2018-10-21T14:22:20.681Z,3.30
2018-10-21T14:24:51.051Z,6.27
2018-10-21T14:27:19.927Z,4.00
2018-10-21T14:29:48.802Z,4.97
2018-10-21T14:32:17.773Z,11.90
2018-10-21T14:34:46.995Z,3.53
2018-10-21T14:37:16.163Z,4.20
2018-10-21T14:39:45.091Z,6.00
2018-10-21T14:42:15.133Z,5.50
2018-10-21T14:44:48.994Z,7.43
2018-10-21T14:47:17.964Z,4.17
2018-10-21T14:49:46.874Z,7.77
2018-10-21T14:52:33.734Z,9.90
2018-10-21T14:55:04.808Z,5.80
2018-10-21T14:57:58.629Z,3.93
2018-10-21T15:00:27.652Z,3.80
2018-10-21T15:03:02.115Z,6.63
2018-10-21T15:05:30.944Z,4.50
2018-10-21T15:11:10.024Z,6.27
2018-10-21T15:13:38.894Z,7.43
2018-10-21T15:16:07.865Z,17.93
2018-10-21T15:18:36.783Z,12.90
2018-10-21T15:21:05.711Z,8.50
2018-10-21T15:23:36.717Z,6.40
2018-10-21T15:26:24.718Z,5.40
2018-10-21T15:29:08.285Z,7.73
2018-10-21T15:31:55.373Z,12.23
2018-10-21T15:34:24.268Z,12.90
2018-10-21T15:36:53.269Z,8.97
2018-10-21T15:39:25.824Z,10.63
2018-10-21T15:41:54.709Z,6.70
2018-10-21T15:44:23.551Z,6.13
2018-10-21T15:46:52.421Z,8.07
2018-10-21T15:49:21.320Z,7.20
2018-10-21T15:51:50.271Z,6.53
2018-10-21T15:54:19.135Z,6.40
2018-10-21T15:56:48.084Z,7.57
2018-10-21T15:59:16.973Z,7.97
2018-10-21T16:01:58.466Z,5.40
2018-10-21T16:04:28.368Z,7.77
2018-10-21T16:06:57.241Z,9.07
2018-10-21T16:09:26.143Z,9.57
2018-10-21T16:12:00.796Z,17.67
2018-10-21T16:14:29.768Z,8.60
2018-10-21T16:16:58.560Z,9.93
2018-10-21T16:19:35.996Z,6.10
2018-10-21T16:22:04.966Z,5.03
2018-10-21T16:24:33.838Z,6.30
2018-10-21T16:27:14.665Z,5.90
2018-10-21T16:29:45.678Z,7.30
2018-10-21T16:35:21.783Z,7.67
2018-10-21T16:37:50.679Z,12.10
2018-10-21T16:40:19.608Z,7.30
2018-10-21T16:42:48.512Z,5.93
2018-10-21T16:45:17.473Z,5.50
2018-10-21T16:47:58.101Z,6.53
2018-10-21T16:50:26.962Z,4.40
2018-10-21T16:53:00.837Z,4.00
2018-10-21T16:55:37.047Z,5.60
2018-10-21T16:58:18.058Z,6.60
2018-10-21T17:00:48.109Z,6.83
2018-10-21T17:03:17.081Z,6.17
2018-10-21T17:05:45.883Z,9.73
2018-10-21T17:08:14.710Z,5.07
2018-10-21T17:10:43.936Z,4.77
2018-10-21T17:13:12.621Z,4.50
2018-10-21T17:15:47.540Z,4.80
2018-10-21T17:18:23.394Z,4.97
2018-10-21T17:20:53.364Z,6.55
2018-10-21T17:23:34.185Z,5.33
2018-10-21T17:26:07.377Z,7.03
2018-10-21T17:28:36.300Z,4.97
2018-10-21T17:31:05.396Z,5.17
2018-10-21T17:33:34.211Z,4.40
2018-10-21T17:36:03.131Z,6.63
2018-10-21T17:38:32.024Z,6.47
2018-10-21T17:41:09.349Z,7.80
2018-10-21T17:43:48.678Z,6.80
2018-10-21T17:46:20.901Z,5.57
2018-10-21T17:51:50.878Z,5.80
2018-10-21T17:54:30.845Z,5.90
2018-10-21T17:57:00.887Z,6.57
2018-10-21T17:59:29.972Z,7.20
2018-10-21T18:01:59.125Z,5.47
2018-10-21T18:04:28.491Z,5.30
2018-10-21T18:06:58.429Z,7.80
2018-10-21T18:09:37.317Z,5.90
2018-10-21T18:12:20.622Z,7.63
2018-10-21T18:14:51.703Z,6.37
2018-10-21T18:20:15.884Z,6.47
2018-10-21T18:22:44.737Z,4.83
2018-10-21T18:25:13.818Z,5.00
2018-10-21T18:27:42.789Z,8.90
2018-10-21T18:30:12.405Z,5.97
2018-10-21T18:32:42.597Z,5.43
2018-10-21T18:35:14.916Z,6.07
2018-10-21T18:37:53.895Z,7.97
2018-10-21T18:40:30.874Z,7.70
2018-10-21T18:43:02.991Z,6.47
2018-10-21T18:45:31.956Z,8.07
2018-10-21T18:48:06.394Z,15.27
2018-10-21T18:50:35.333Z,7.63
2018-10-21T18:53:05.657Z,6.90
2018-10-21T18:55:35.805Z,4.53
2018-10-21T18:58:10.867Z,4.13
2018-10-21T19:00:39.757Z,5.17
2018-10-21T19:03:08.807Z,6.70
2018-10-21T19:05:37.739Z,4.17
2018-10-21T19:08:10.205Z,5.20
2018-10-21T19:10:39.212Z,5.27
2018-10-21T19:13:10.351Z,6.97
2018-10-21T19:15:40.632Z,6.37
2018-10-21T19:18:09.580Z,8.73
2018-10-21T19:20:47.592Z,6.83
2018-10-21T19:23:18.626Z,7.70
2018-10-21T19:26:01.856Z,10.77
2018-10-21T19:28:30.787Z,7.13
2018-10-21T19:30:59.697Z,9.33
2018-10-21T19:33:28.720Z,7.87
2018-10-21T19:36:00.735Z,7.53
2018-10-21T19:38:29.951Z,8.90
2018-10-21T19:40:59.445Z,5.57
2018-10-21T19:43:29.099Z,8.57
2018-10-21T19:45:59.015Z,9.80
2018-10-21T19:48:32.763Z,11.77
2018-10-21T19:51:02.373Z,8.90
2018-10-21T19:53:31.936Z,7.63
2018-10-21T19:56:01.380Z,6.13
2018-10-21T19:58:30.759Z,7.03
2018-10-21T20:01:09.696Z,4.63
2018-10-21T20:03:38.922Z,4.70
2018-10-21T20:06:08.301Z,4.53
2018-10-21T20:08:38.705Z,4.07
2018-10-21T20:11:09.760Z,5.37
2018-10-21T20:16:57.333Z,5.40
2018-10-21T20:19:26.240Z,4.03
2018-10-21T20:21:58.499Z,4.07
2018-10-21T20:24:27.429Z,5.70
2018-10-21T20:26:56.334Z,4.20
2018-10-21T20:29:25.220Z,3.67
2018-10-21T20:31:54.207Z,4.97
2018-10-21T20:34:23.012Z,4.17
2018-10-21T20:36:51.942Z,5.13
2018-10-21T20:39:20.850Z,6.37
2018-10-21T20:41:50.799Z,3.50
2018-10-21T20:44:19.680Z,8.17
2018-10-21T20:46:51.953Z,3.87
2018-10-21T20:49:20.814Z,5.77
2018-10-21T20:51:50.714Z,4.97
2018-10-21T20:54:19.609Z,5.93
2018-10-21T20:56:48.496Z,4.10
2018-10-21T20:59:17.509Z,4.67
2018-10-21T21:01:46.372Z,6.13
2018-10-21T21:04:22.695Z,5.10
2018-10-21T21:07:04.346Z,4.93
2018-10-21T21:09:33.219Z,5.57
2018-10-21T21:12:02.205Z,7.03
2018-10-21T21:14:31.021Z,6.43
2018-10-21T21:17:18.425Z,5.43
2018-10-21T21:19:47.329Z,5.90
2018-10-21T21:22:16.288Z,4.70
2018-10-21T21:24:45.139Z,6.17
2018-10-21T21:27:15.018Z,5.53
2018-10-21T21:29:58.797Z,5.30
2018-10-21T21:32:34.073Z,5.73
2018-10-21T21:35:08.593Z,5.20
2018-10-21T21:37:50.328Z,5.13
2018-10-21T21:40:19.229Z,4.60
2018-10-21T21:42:49.128Z,5.17
2018-10-21T21:45:21.729Z,5.43
2018-10-21T21:47:50.692Z,5.23
2018-10-21T21:50:43.858Z,7.13
2018-10-21T21:53:16.612Z,6.97
2018-10-21T21:55:48.595Z,6.10
2018-10-21T21:58:18.054Z,6.77
2018-10-21T22:01:00.644Z,4.70
2018-10-21T22:03:48.546Z,5.90
2018-10-21T22:06:17.516Z,4.77
2018-10-21T22:08:46.329Z,5.10
2018-10-21T22:11:15.294Z,5.67
2018-10-21T22:13:44.196Z,3.80
2018-10-21T22:16:13.123Z,4.43
2018-10-21T22:18:41.991Z,3.53
2018-10-21T22:21:14.903Z,4.80
2018-10-21T22:23:43.783Z,6.93
2018-10-21T22:26:12.650Z,5.07
2018-10-21T22:28:41.528Z,4.60
2018-10-21T22:31:10.437Z,6.10
2018-10-21T22:33:39.323Z,4.97
2018-10-21T22:36:08.310Z,5.67
2018-10-21T22:41:32.227Z,5.80
2018-10-21T22:44:01.144Z,6.97
2018-10-21T22:46:30.253Z,6.67
2018-10-21T22:48:59.090Z,5.43
2018-10-21T22:51:27.989Z,6.77
2018-10-21T22:53:56.917Z,6.27
2018-10-21T22:56:25.760Z,5.10
2018-10-21T22:58:59.931Z,6.03
2018-10-21T23:01:28.832Z,5.57
2018-10-21T23:03:57.764Z,8.80
2018-10-21T23:06:26.640Z,6.80
2018-10-21T23:08:55.512Z,4.93
2018-10-21T23:11:24.452Z,6.03
2018-10-21T23:13:53.304Z,5.97
2018-10-21T23:16:22.215Z,5.10
2018-10-21T23:19:04.350Z,6.27
2018-10-21T23:21:33.202Z,6.53
2018-10-21T23:24:02.119Z,6.17
2018-10-21T23:26:30.984Z,7.10
2018-10-21T23:29:00.951Z,8.10
2018-10-21T23:31:29.823Z,5.73
2018-10-21T23:33:58.813Z,6.03
2018-10-21T23:36:27.747Z,5.23
2018-10-21T23:38:56.806Z,5.60
2018-10-21T23:41:25.669Z,6.93
2018-10-21T23:43:54.547Z,7.50
2018-10-21T23:46:23.434Z,5.10
2018-10-21T23:48:52.907Z,8.40
2018-10-21T23:51:22.884Z,5.97
2018-10-21T23:53:51.766Z,5.10
2018-10-21T23:56:20.650Z,5.27
2018-10-21T23:58:51.600Z,4.23
